Time;durP1;ratioP1;P1;durP2;ratioP2;P2;SDS_P1;SDS_P2;PMS_P1;PMS_P2;Temp;Humidity;BMP_temperature;BMP_pressure;BME280_temperature;BME280_humidity;BME280_pressure;Samples;Min_cycle;Max_cycle;Signal;HPM_P1;HPM_P2
2022/05/23 00:01:12;;;;;;;3.07;2.60;;;22.20;48.20;;;;;;5070706;28;20467;-87
2022/05/23 00:03:39;;;;;;;2.90;2.57;;;22.20;48.40;;;;;;5054666;28;20474;-86
2022/05/23 00:06:06;;;;;;;2.97;2.27;;;22.10;48.10;;;;;;5072198;28;20551;-86
2022/05/23 00:08:33;;;;;;;2.90;2.20;;;22.00;48.40;;;;;;5055645;28;20452;-87
2022/05/23 00:11:00;;;;;;;6.33;3.17;;;22.10;48.30;;;;;;5070595;28;20462;-87
2022/05/23 00:13:27;;;;;;;3.00;2.63;;;22.10;48.10;;;;;;5073361;28;20954;-86
2022/05/23 00:15:57;;;;;;;3.60;3.30;;;22.10;48.60;;;;;;5052936;28;20475;-86
2022/05/23 00:18:25;;;;;;;2.70;2.50;;;22.10;48.50;;;;;;5069673;28;20451;-87
2022/05/23 00:20:52;;;;;;;2.93;2.70;;;22.10;48.50;;;;;;5056208;28;20461;-87
2022/05/23 00:23:19;;;;;;;2.40;2.20;;;22.10;48.90;;;;;;5091349;28;20450;-86
2022/05/23 00:25:46;;;;;;;2.90;2.57;;;22.10;49.00;;;;;;5063217;28;20490;-88
2022/05/23 00:28:13;;;;;;;2.73;2.53;;;22.00;48.90;;;;;;5062594;28;20466;-86
2022/05/23 00:30:40;;;;;;;5.90;2.80;;;22.00;49.10;;;;;;5087132;28;20447;-86
2022/05/23 00:35:55;;;;;;;3.30;3.00;;;22.00;49.10;;;;;;5072487;28;21072;-86
2022/05/23 00:38:22;;;;;;;4.57;3.00;;;22.00;49.20;;;;;;5075065;28;20984;-85
2022/05/23 00:43:13;;;;;;;3.73;3.43;;;21.80;49.40;;;;;;5063852;28;20468;-86
2022/05/23 00:43:42;;;;;;;2.77;2.57;;;21.80;49.30;;;;;;5091012;28;20559;-87
2022/05/23 00:46:12;;;;;;;3.03;2.77;;;21.60;49.00;;;;;;5089627;28;21184;-86
2022/05/23 00:48:40;;;;;;;3.80;2.50;;;21.30;50.10;;;;;;5054137;28;20947;-87
2022/05/23 00:51:12;;;;;;;3.53;2.67;;;21.30;50.10;;;;;;5056741;28;20447;-87
2022/05/23 00:53:41;;;;;;;3.00;2.80;;;21.00;50.50;;;;;;5072296;28;20447;-86
2022/05/23 00:56:16;;;;;;;3.00;2.80;;;20.70;51.00;;;;;;5090607;28;20463;-87
2022/05/23 00:58:46;;;;;;;2.93;2.73;;;20.80;51.00;;;;;;5071140;28;20448;-87
2022/05/23 01:01:18;;;;;;;4.77;2.60;;;20.90;50.90;;;;;;5055757;28;21153;-87
2022/05/23 01:03:48;;;;;;;3.90;3.17;;;20.60;51.30;;;;;;5070345;28;20558;-86
2022/05/23 01:06:16;;;;;;;5.73;3.10;;;20.20;51.90;;;;;;5087292;28;20488;-87
2022/05/23 01:08:45;;;;;;;3.43;3.13;;;20.00;52.80;;;;;;5073945;28;21215;-85
2022/05/23 01:11:14;;;;;;;3.57;3.03;;;20.00;53.10;;;;;;5073392;28;20439;-87
2022/05/23 01:13:43;;;;;;;4.03;2.50;;;20.30;52.70;;;;;;5040124;28;20534;-86
2022/05/23 01:16:11;;;;;;;3.10;2.80;;;20.50;51.50;;;;;;5068349;28;20486;-86
2022/05/23 01:18:43;;;;;;;3.07;2.77;;;20.60;51.00;;;;;;5068848;28;20448;-86
2022/05/23 01:21:19;;;;;;;3.00;2.70;;;20.80;50.70;;;;;;5071545;28;20452;-86
2022/05/23 01:23:53;;;;;;;5.33;3.03;;;21.00;50.40;;;;;;5054398;28;20453;-86
2022/05/23 01:26:24;;;;;;;3.53;3.23;;;21.10;50.40;;;;;;5053654;28;20490;-86
2022/05/23 01:28:54;;;;;;;2.80;2.60;;;21.20;49.80;;;;;;5071405;28;20535;-87
2022/05/23 01:31:45;;;;;;;5.07;3.03;;;21.30;49.20;;;;;;5066419;28;20479;-86
2022/05/23 01:34:21;;;;;;;4.07;3.17;;;21.30;49.50;;;;;;5075672;28;20452;-86
2022/05/23 01:36:54;;;;;;;3.47;2.63;;;21.40;49.50;;;;;;5062569;28;20459;-88
2022/05/23 01:39:23;;;;;;;3.70;2.87;;;21.40;48.90;;;;;;5062587;28;20452;-86
2022/05/23 01:41:52;;;;;;;4.47;3.20;;;21.40;49.10;;;;;;5089407;28;20467;-86
2022/05/23 01:44:19;;;;;;;4.60;2.97;;;21.40;49.10;;;;;;5050722;28;20458;-87
2022/05/23 01:46:57;;;;;;;5.10;3.00;;;21.40;48.90;;;;;;5069084;28;21289;-86
2022/05/23 01:49:35;;;;;;;3.17;2.80;;;21.40;49.00;;;;;;5054477;28;20459;-86
2022/05/23 01:52:15;;;;;;;3.10;2.80;;;21.40;48.80;;;;;;5056450;28;20538;-88
2022/05/23 01:54:42;;;;;;;4.13;2.93;;;21.30;48.30;;;;;;5045383;28;20476;-86
2022/05/23 01:57:13;;;;;;;3.03;2.83;;;21.30;48.60;;;;;;5063782;28;20804;-85
2022/05/23 02:02:26;;;;;;;3.93;3.37;;;21.20;48.20;;;;;;5062242;28;21176;-86
2022/05/23 02:04:54;;;;;;;4.53;2.67;;;21.10;48.40;;;;;;5071884;28;20577;-86
2022/05/23 02:07:22;;;;;;;5.40;2.87;;;20.70;48.60;;;;;;5058955;28;21063;-87
2022/05/23 02:09:50;;;;;;;7.10;3.47;;;20.70;49.20;;;;;;5068345;28;20459;-86
2022/05/23 02:12:21;;;;;;;5.47;3.30;;;20.70;49.30;;;;;;5056583;28;20589;-86
2022/05/23 02:14:51;;;;;;;4.93;3.33;;;20.80;49.10;;;;;;5059373;28;20478;-86
2022/05/23 02:17:58;;;;;;;3.43;3.13;;;20.80;49.10;;;;;;5042749;28;20451;-86
2022/05/23 02:20:26;;;;;;;3.43;3.13;;;20.70;48.80;;;;;;5069955;28;20479;-86
2022/05/23 02:22:53;;;;;;;4.30;3.90;;;20.30;49.30;;;;;;5085908;28;20472;-86
2022/05/23 02:25:25;;;;;;;8.07;3.60;;;20.00;50.00;;;;;;5078851;28;20979;-85
2022/05/23 02:27:54;;;;;;;3.83;3.23;;;20.20;50.20;;;;;;5067896;28;20501;-86
2022/05/23 02:30:22;;;;;;;3.70;3.13;;;20.30;49.90;;;;;;5067923;28;21215;-86
2022/05/23 02:32:49;;;;;;;4.60;3.90;;;20.40;49.70;;;;;;5052323;28;21087;-86
2022/05/23 02:35:18;;;;;;;4.70;3.50;;;20.50;49.40;;;;;;5083220;28;20474;-86
2022/05/23 02:37:46;;;;;;;4.20;3.80;;;20.30;49.50;;;;;;5082464;28;20968;-86
2022/05/23 02:40:14;;;;;;;5.27;3.53;;;19.70;50.00;;;;;;5068915;28;21171;-86
2022/05/23 02:42:42;;;;;;;4.10;3.70;;;19.60;51.00;;;;;;5071488;28;20503;-86
2022/05/23 02:45:11;;;;;;;3.80;3.40;;;19.80;51.00;;;;;;5051003;28;20509;-87
2022/05/23 02:47:43;;;;;;;5.37;3.67;;;20.00;50.20;;;;;;5063539;28;20450;-85
2022/05/23 02:50:12;;;;;;;3.70;3.40;;;20.10;50.20;;;;;;5077312;28;20446;-86
2022/05/23 02:52:44;;;;;;;4.77;4.03;;;20.20;50.20;;;;;;5069191;28;20465;-86
2022/05/23 02:55:14;;;;;;;5.77;3.90;;;20.30;50.30;;;;;;5069135;28;20474;-87
2022/05/23 02:57:42;;;;;;;7.47;4.20;;;20.40;49.90;;;;;;5067310;28;20439;-87
2022/05/23 03:00:18;;;;;;;4.53;3.73;;;20.10;49.50;;;;;;5070624;28;20803;-87
2022/05/23 03:03:04;;;;;;;4.80;3.90;;;19.80;50.50;;;;;;5057396;28;21041;-87
2022/05/23 03:05:46;;;;;;;4.93;4.00;;;19.90;50.80;;;;;;5067123;28;21396;-87
2022/05/23 03:08:17;;;;;;;4.60;4.20;;;19.90;50.20;;;;;;5045228;28;20481;-86
2022/05/23 03:10:45;;;;;;;6.50;4.27;;;20.00;50.20;;;;;;5055014;28;20470;-85
2022/05/23 03:13:13;;;;;;;6.63;4.73;;;20.10;50.10;;;;;;5061816;28;20477;-86
2022/05/23 03:15:42;;;;;;;7.73;4.73;;;20.20;50.10;;;;;;5055579;28;20485;-86
2022/05/23 03:18:09;;;;;;;4.10;3.70;;;20.00;49.70;;;;;;5053742;28;20455;-86
2022/05/23 03:20:40;;;;;;;5.60;4.60;;;19.70;50.30;;;;;;5043853;28;20548;-87
2022/05/23 03:28:38;;;;;;;4.87;3.87;;;19.80;50.70;;;;;;5079172;28;20432;-85
2022/05/23 03:31:07;;;;;;;5.17;4.30;;;19.90;50.70;;;;;;5075335;28;20464;-86
2022/05/23 03:33:36;;;;;;;6.43;5.00;;;20.00;50.40;;;;;;5037548;28;20969;-87
2022/05/23 03:36:04;;;;;;;9.70;4.90;;;20.10;50.40;;;;;;5069968;28;20554;-86
2022/05/23 03:38:31;;;;;;;4.57;4.17;;;20.10;49.80;;;;;;5069971;28;20470;-86
2022/05/23 03:41:05;;;;;;;4.40;4.00;;;20.20;50.10;;;;;;5077169;28;20458;-87
2022/05/23 03:43:32;;;;;;;5.90;4.80;;;20.20;50.00;;;;;;5062018;28;20909;-87
2022/05/23 03:46:05;;;;;;;6.13;4.77;;;20.20;49.90;;;;;;5051090;28;20530;-85
2022/05/23 03:48:33;;;;;;;4.60;4.20;;;20.30;49.40;;;;;;5069576;28;20990;-86
2022/05/23 03:51:01;;;;;;;10.00;5.70;;;20.30;49.60;;;;;;5057079;28;20458;-86
2022/05/23 03:53:29;;;;;;;5.30;4.80;;;20.40;49.70;;;;;;5084703;28;20442;-86
2022/05/23 03:55:59;;;;;;;6.23;4.50;;;20.40;49.80;;;;;;5056218;28;20462;-85
2022/05/23 03:58:28;;;;;;;6.00;4.53;;;20.40;49.50;;;;;;5091077;28;20543;-85
2022/05/23 04:01:25;;;;;;;5.83;4.83;;;20.40;49.40;;;;;;5067297;28;20459;-86
2022/05/23 04:03:58;;;;;;;8.73;5.00;;;20.40;49.20;;;;;;5053287;28;20510;-84
2022/05/23 04:06:27;;;;;;;5.00;4.50;;;20.40;49.00;;;;;;5071867;28;20571;-87
2022/05/23 04:09:07;;;;;;;5.20;4.70;;;20.40;49.20;;;;;;5069988;28;20477;-85
2022/05/23 04:11:38;;;;;;;5.13;4.60;;;20.50;49.40;;;;;;5038999;28;20448;-86
2022/05/23 04:14:06;;;;;;;7.17;5.07;;;20.50;49.40;;;;;;5031248;28;20483;-86
2022/05/23 04:16:40;;;;;;;9.00;5.00;;;20.50;49.40;;;;;;5073259;28;21022;-85
2022/05/23 04:19:09;;;;;;;7.10;4.57;;;20.40;49.10;;;;;;5083861;28;20451;-86
2022/05/23 04:21:45;;;;;;;6.37;4.43;;;20.30;49.60;;;;;;5050101;28;20510;-86
2022/05/23 04:24:21;;;;;;;4.83;4.33;;;20.40;49.80;;;;;;5056932;28;20576;-85
2022/05/23 04:26:58;;;;;;;8.20;5.17;;;20.40;50.20;;;;;;5064904;28;20869;-86
2022/05/23 04:29:28;;;;;;;5.60;4.87;;;20.40;49.90;;;;;;5064368;28;20448;-86
2022/05/23 04:31:56;;;;;;;9.03;5.50;;;20.50;49.50;;;;;;5054606;28;20446;-84
2022/05/23 04:37:18;;;;;;;6.77;5.33;;;20.50;49.90;;;;;;5065498;28;20446;-86
2022/05/23 04:39:49;;;;;;;5.10;4.60;;;20.50;49.90;;;;;;5074841;28;20529;-86
2022/05/23 04:42:16;;;;;;;5.07;4.60;;;20.50;49.60;;;;;;5077332;28;20446;-86
2022/05/23 04:44:44;;;;;;;5.27;4.77;;;20.50;49.90;;;;;;5070313;28;20473;-86
2022/05/23 04:50:03;;;;;;;6.53;5.00;;;20.60;49.50;;;;;;5079545;28;20435;-85
2022/05/23 04:52:44;;;;;;;8.27;5.37;;;20.60;49.30;;;;;;5056072;28;20446;-85
2022/05/23 04:55:13;;;;;;;6.47;5.70;;;20.50;48.70;;;;;;5072198;28;20868;-85
2022/05/23 04:57:40;;;;;;;6.10;4.80;;;20.60;49.90;;;;;;5040019;28;20456;-86
2022/05/23 05:00:10;;;;;;;6.17;5.20;;;20.60;49.80;;;;;;5079044;28;20857;-87
2022/05/23 05:02:45;;;;;;;12.83;5.77;;;20.60;49.70;;;;;;5080443;28;20467;-86
2022/05/23 05:05:13;;;;;;;6.00;5.40;;;20.40;50.00;;;;;;5051878;28;20488;-86
2022/05/23 05:07:55;;;;;;;8.70;5.73;;;20.50;50.30;;;;;;5047753;28;20455;-87
2022/05/23 05:10:23;;;;;;;6.53;5.13;;;20.40;50.20;;;;;;5080101;28;20654;-86
2022/05/23 05:12:50;;;;;;;6.10;5.50;;;20.40;50.50;;;;;;5072601;28;20442;-87
2022/05/23 05:15:22;;;;;;;10.70;5.50;;;20.40;50.20;;;;;;5089726;28;20467;-86
2022/05/23 05:17:50;;;;;;;11.63;5.70;;;20.10;50.60;;;;;;5038001;28;20447;-85
2022/05/23 05:20:19;;;;;;;6.67;5.40;;;20.10;50.60;;;;;;5069282;28;20466;-86
2022/05/23 05:23:15;;;;;;;6.53;5.63;;;19.70;51.90;;;;;;5057802;28;20513;-86
2022/05/23 05:25:56;;;;;;;5.37;4.87;;;19.30;53.60;;;;;;5037080;28;20482;-86
2022/05/23 05:28:30;;;;;;;6.10;5.50;;;19.50;53.60;;;;;;5056494;28;20431;-85
2022/05/23 05:31:06;;;;;;;5.83;5.10;;;19.70;53.70;;;;;;5086713;28;20486;-84
2022/05/23 05:33:40;;;;;;;10.30;5.07;;;20.00;53.10;;;;;;5090055;28;20466;-85
2022/05/23 05:36:11;;;;;;;7.87;5.97;;;20.10;52.70;;;;;;5069199;28;20478;-86
2022/05/23 05:38:44;;;;;;;7.93;5.00;;;20.20;53.10;;;;;;5072255;28;21253;-88
2022/05/23 05:41:18;;;;;;;7.03;6.03;;;20.00;51.80;;;;;;5070722;28;20455;-86
2022/05/23 05:43:50;;;;;;;6.70;5.17;;;20.10;53.30;;;;;;5069991;28;20510;-86
2022/05/23 05:46:23;;;;;;;8.13;6.27;;;20.20;52.00;;;;;;5056514;28;20474;-86
2022/05/23 05:49:05;;;;;;;6.90;5.77;;;20.20;51.60;;;;;;5070451;28;20453;-86
2022/05/23 05:51:34;;;;;;;7.20;6.50;;;20.40;52.50;;;;;;5089277;28;20451;-86
2022/05/23 05:54:15;;;;;;;6.73;5.60;;;20.50;52.20;;;;;;5036299;28;20495;-86
2022/05/23 05:56:51;;;;;;;7.27;5.80;;;20.60;52.20;;;;;;5054825;28;20940;-86
2022/05/23 05:59:19;;;;;;;6.40;5.53;;;20.70;52.30;;;;;;5070369;28;20794;-86
2022/05/23 06:01:47;;;;;;;6.63;5.20;;;20.70;52.00;;;;;;5072809;28;20443;-87
2022/05/23 06:04:18;;;;;;;6.23;5.57;;;20.70;52.30;;;;;;5067118;28;20482;-86
2022/05/23 06:12:36;;;;;;;8.13;6.10;;;20.60;52.00;;;;;;5062024;28;20447;-87
2022/05/23 06:15:24;;;;;;;7.63;5.73;;;20.70;53.10;;;;;;5058259;28;20500;-87
2022/05/23 06:17:52;;;;;;;8.27;5.80;;;20.70;52.70;;;;;;5058427;28;20524;-89
2022/05/23 06:20:23;;;;;;;7.87;5.83;;;20.70;52.90;;;;;;5045238;28;20461;-89
2022/05/23 06:22:51;;;;;;;8.90;7.10;;;20.60;53.60;;;;;;5080224;28;20562;-88
2022/05/23 06:25:19;;;;;;;10.80;6.23;;;20.60;55.10;;;;;;5056023;28;20471;-89
2022/05/23 06:27:47;;;;;;;6.83;6.13;;;20.50;54.60;;;;;;5047960;28;20454;-90
2022/05/23 06:30:18;;;;;;;7.40;6.43;;;20.40;54.90;;;;;;5082289;28;20833;-91
2022/05/23 06:33:05;;;;;;;7.67;6.90;;;19.90;55.30;;;;;;5072444;28;20448;-90
2022/05/23 06:36:02;;;;;;;8.10;6.30;;;19.30;56.90;;;;;;5053499;28;20867;-90
2022/05/23 06:38:30;;;;;;;12.90;7.33;;;18.90;58.10;;;;;;5050955;28;20492;-91
2022/05/23 06:41:07;;;;;;;10.30;6.87;;;18.90;58.30;;;;;;5075138;28;20463;-90
2022/05/23 06:44:00;;;;;;;7.57;6.60;;;18.70;59.30;;;;;;5058247;28;20550;-88
2022/05/23 06:46:48;;;;;;;11.73;8.10;;;18.90;58.70;;;;;;5057823;28;20444;-89
2022/05/23 06:49:24;;;;;;;12.37;7.27;;;19.00;59.30;;;;;;5074964;28;20543;-90
2022/05/23 06:52:05;;;;;;;7.50;5.80;;;19.10;58.80;;;;;;5055841;28;20432;-91
2022/05/23 06:54:51;;;;;;;10.10;6.47;;;19.20;58.90;;;;;;5051480;28;20475;-89
2022/05/23 06:57:20;;;;;;;13.17;6.50;;;19.20;59.30;;;;;;5061300;28;20448;-89
2022/05/23 06:59:48;;;;;;;7.00;6.13;;;19.40;58.70;;;;;;5061776;28;20600;-88
2022/05/23 07:02:15;;;;;;;9.13;7.00;;;19.70;59.20;;;;;;5077351;28;20485;-90
2022/05/23 07:13:50;;;;;;;7.93;5.90;;;20.20;58.10;;;;;;4985526;28;20453;-91
2022/05/23 07:16:18;;;;;;;8.20;6.30;;;20.50;58.40;;;;;;5046634;28;20465;-88
2022/05/23 07:18:46;;;;;;;6.53;5.93;;;20.80;58.10;;;;;;5057491;28;20447;-91
2022/05/23 07:21:27;;;;;;;9.53;5.73;;;20.90;57.40;;;;;;5074956;28;20444;-88
2022/05/23 07:24:16;;;;;;;6.60;6.00;;;20.90;57.40;;;;;;5075278;28;20467;-89
2022/05/23 07:26:46;;;;;;;7.90;6.00;;;21.10;56.90;;;;;;5060365;28;20474;-88
2022/05/23 07:29:15;;;;;;;6.30;4.87;;;21.30;55.90;;;;;;5054674;28;20432;-89
2022/05/23 07:31:44;;;;;;;6.60;5.93;;;21.40;54.90;;;;;;5069332;28;21426;-90
2022/05/23 07:34:14;;;;;;;6.57;5.90;;;21.30;55.60;;;;;;5096574;28;20440;-90
2022/05/23 07:36:41;;;;;;;10.63;5.90;;;21.50;56.10;;;;;;5060510;28;20472;-90
2022/05/23 07:39:11;;;;;;;5.97;5.30;;;21.80;56.40;;;;;;5069832;28;21169;-89
2022/05/23 07:42:01;;;;;;;11.43;6.17;;;22.20;56.50;;;;;;5098980;28;20470;-89
2022/05/23 07:44:29;;;;;;;6.10;5.50;;;22.30;54.80;;;;;;5050157;28;20474;-90
2022/05/23 07:47:03;;;;;;;6.23;5.37;;;22.60;55.90;;;;;;5061152;28;20442;-89
2022/05/23 07:49:30;;;;;;;5.50;4.83;;;22.70;55.40;;;;;;5063390;28;20442;-88
2022/05/23 07:52:17;;;;;;;5.13;4.73;;;22.60;54.30;;;;;;5080480;28;20550;-91
2022/05/23 08:00:41;;;;;;;7.67;5.27;;;23.30;53.60;;;;;;5076516;28;20463;-91
2022/05/23 08:03:20;;;;;;;6.40;4.70;;;23.30;53.50;;;;;;5048153;28;20470;-90
2022/05/23 08:05:57;;;;;;;5.70;4.87;;;23.40;54.80;;;;;;5047000;28;20483;-89
2022/05/23 08:08:26;;;;;;;4.50;4.17;;;23.70;53.40;;;;;;5092307;28;21294;-91
2022/05/23 08:10:52;;;;;;;5.00;4.60;;;23.60;52.60;;;;;;5053662;28;20438;-91
2022/05/23 08:13:21;;;;;;;5.80;4.37;;;23.50;51.50;;;;;;5068976;28;20438;-90
2022/05/23 08:15:48;;;;;;;5.30;4.03;;;23.60;52.60;;;;;;5066805;28;20487;-90
2022/05/23 08:18:18;;;;;;;5.03;4.53;;;23.80;51.20;;;;;;5082728;28;20450;-91
2022/05/23 08:20:52;;;;;;;10.63;4.20;;;23.90;51.90;;;;;;5076938;28;20479;-89
2022/05/23 08:23:24;;;;;;;5.37;4.87;;;24.30;53.00;;;;;;5050529;28;20544;-89
2022/05/23 08:26:04;;;;;;;11.10;4.40;;;24.40;52.50;;;;;;5049617;28;20461;-88
2022/05/23 08:28:37;;;;;;;4.63;4.20;;;24.50;50.20;;;;;;5049590;28;20435;-89
2022/05/23 08:31:04;;;;;;;3.97;3.67;;;24.40;51.20;;;;;;5063160;28;20484;-89
2022/05/23 08:33:38;;;;;;;5.60;3.90;;;24.60;51.20;;;;;;5065581;28;20529;-89
2022/05/23 08:36:19;;;;;;;6.70;4.40;;;24.80;49.90;;;;;;5044593;28;20479;-90
2022/05/23 08:38:46;;;;;;;3.83;3.40;;;24.90;50.80;;;;;;5065621;28;20458;-89
2022/05/23 08:41:25;;;;;;;6.10;3.90;;;25.10;51.30;;;;;;5058894;28;20545;-89
2022/05/23 08:44:07;;;;;;;2.93;2.73;;;25.20;50.10;;;;;;5040326;28;20487;-88
2022/05/23 08:46:51;;;;;;;3.67;3.37;;;25.40;49.40;;;;;;5074620;28;20479;-89
2022/05/23 08:49:32;;;;;;;4.20;3.40;;;25.40;50.00;;;;;;5064536;28;20447;-89
2022/05/23 08:52:07;;;;;;;3.80;3.50;;;25.50;49.90;;;;;;5065077;28;20442;-89
2022/05/23 08:54:45;;;;;;;4.20;3.10;;;25.30;50.10;;;;;;5074745;28;20515;-88
2022/05/23 08:57:36;;;;;;;5.47;3.90;;;25.30;49.90;;;;;;5074546;28;20454;-90
2022/05/23 09:00:08;;;;;;;5.93;3.50;;;25.40;50.10;;;;;;5049561;28;20446;-89
2022/05/23 09:02:42;;;;;;;4.53;3.53;;;25.50;49.80;;;;;;5064381;28;20822;-90
2022/05/23 09:05:33;;;;;;;3.67;3.00;;;25.60;49.80;;;;;;5090991;28;21273;-89
2022/05/23 09:08:03;;;;;;;3.83;3.07;;;25.80;48.90;;;;;;5077246;28;20451;-91
2022/05/23 09:10:38;;;;;;;3.70;3.23;;;25.80;46.70;;;;;;5070863;28;20825;-87
2022/05/23 09:13:06;;;;;;;3.60;3.20;;;26.00;48.00;;;;;;5042445;28;20467;-89
2022/05/23 09:15:35;;;;;;;5.10;2.90;;;26.30;47.80;;;;;;5072581;28;20545;-90
2022/05/23 09:18:06;;;;;;;4.50;3.07;;;26.00;45.40;;;;;;5090664;28;20439;-88
2022/05/23 09:20:39;;;;;;;3.67;2.90;;;25.80;46.60;;;;;;5045976;28;21508;-88
2022/05/23 09:23:10;;;;;;;5.73;3.00;;;25.90;47.30;;;;;;5075269;28;20451;-90
2022/05/23 09:25:40;;;;;;;3.10;2.80;;;25.80;47.90;;;;;;5064014;28;20475;-88
2022/05/23 09:28:14;;;;;;;3.60;3.30;;;26.20;47.50;;;;;;5071810;28;20456;-90
2022/05/23 09:30:46;;;;;;;3.47;3.17;;;26.40;47.30;;;;;;5073499;28;20462;-89
2022/05/23 09:33:17;;;;;;;3.33;3.03;;;26.60;46.50;;;;;;5080511;28;20942;-89
2022/05/23 09:35:54;;;;;;;3.83;3.47;;;26.90;46.90;;;;;;5046556;28;20559;-89
2022/05/23 09:38:25;;;;;;;4.50;2.60;;;27.40;47.70;;;;;;5092152;28;20476;-90
2022/05/23 09:41:00;;;;;;;5.20;3.40;;;27.50;46.60;;;;;;5060825;28;20457;-91
2022/05/23 09:49:13;;;;;;;2.90;2.60;;;27.90;44.20;;;;;;5055528;28;20451;-89
2022/05/23 09:51:55;;;;;;;3.03;2.73;;;27.80;44.50;;;;;;5071029;28;20477;-87
2022/05/23 09:54:29;;;;;;;3.40;3.10;;;28.00;44.50;;;;;;5059209;28;20450;-88
2022/05/23 09:56:57;;;;;;;4.63;3.53;;;28.10;43.60;;;;;;5090588;28;20432;-92
2022/05/23 09:59:28;;;;;;;3.17;2.87;;;28.20;45.80;;;;;;5060800;28;20950;-88
2022/05/23 10:01:57;;;;;;;3.10;2.80;;;28.10;43.90;;;;;;5054444;28;20451;-89
2022/05/23 10:04:27;;;;;;;3.20;2.90;;;28.40;44.70;;;;;;5070696;28;20478;-90
2022/05/23 10:06:54;;;;;;;3.37;2.60;;;28.70;43.30;;;;;;5055956;28;20479;-90
2022/05/23 10:09:31;;;;;;;7.90;3.20;;;28.90;44.10;;;;;;5074918;28;20451;-89
2022/05/23 10:12:22;;;;;;;3.10;2.83;;;29.00;44.60;;;;;;5071577;28;20447;-89
2022/05/23 10:14:51;;;;;;;3.13;2.30;;;29.20;42.10;;;;;;5063088;28;20475;-89
2022/05/23 10:17:27;;;;;;;3.57;2.57;;;29.20;42.80;;;;;;5073136;28;20488;-92
2022/05/23 10:20:15;;;;;;;2.57;2.37;;;29.10;42.50;;;;;;5063169;28;20448;-89
2022/05/23 10:22:55;;;;;;;2.87;2.17;;;28.70;42.00;;;;;;5047273;28;20454;-88
2022/05/23 10:25:22;;;;;;;3.73;2.70;;;29.00;42.90;;;;;;5080229;28;20870;-89
2022/05/23 10:27:53;;;;;;;3.30;3.00;;;29.40;42.60;;;;;;5056156;28;20468;-90
2022/05/23 10:30:24;;;;;;;2.30;2.20;;;29.40;40.70;;;;;;5052784;28;20462;-89
2022/05/23 10:32:58;;;;;;;4.73;3.20;;;29.60;41.80;;;;;;5074452;28;20454;-88
2022/05/23 10:35:30;;;;;;;2.60;2.40;;;29.80;41.60;;;;;;5079336;28;20532;-87
2022/05/23 10:42:07;;;;;;;2.90;2.47;;;30.00;41.10;;;;;;5072020;28;20442;-86
2022/05/23 10:43:45;;;;;;;3.23;2.60;;;30.20;39.50;;;;;;5072197;28;20853;-86
2022/05/23 10:46:13;;;;;;;2.73;2.37;;;30.20;40.30;;;;;;5088556;28;20900;-86
2022/05/23 10:48:47;;;;;;;3.97;2.50;;;30.00;39.70;;;;;;5070725;28;20451;-87
2022/05/23 10:51:23;;;;;;;3.00;2.70;;;29.70;41.20;;;;;;5063536;28;20457;-88
2022/05/23 10:54:02;;;;;;;2.30;2.10;;;30.00;40.60;;;;;;5064460;28;20472;-87
2022/05/23 10:56:42;;;;;;;5.53;2.60;;;29.70;41.20;;;;;;5048597;28;20486;-87
2022/05/23 10:59:14;;;;;;;5.97;2.53;;;29.70;39.20;;;;;;5062065;28;20855;-87
2022/05/23 11:01:56;;;;;;;3.13;2.83;;;29.70;40.20;;;;;;5062908;28;20456;-88
2022/05/23 11:04:35;;;;;;;4.23;2.80;;;30.00;39.60;;;;;;5089496;28;20467;-87
2022/05/23 11:07:24;;;;;;;2.90;2.30;;;30.10;38.80;;;;;;5078399;28;20461;-87
2022/05/23 11:09:57;;;;;;;2.77;2.53;;;30.20;38.60;;;;;;5079091;28;20446;-87
2022/05/23 11:12:33;;;;;;;2.17;2.00;;;30.00;38.90;;;;;;5076179;28;21229;-87
2022/05/23 11:15:26;;;;;;;2.43;2.20;;;30.20;39.40;;;;;;5060691;28;20941;-87
2022/05/23 11:18:02;;;;;;;4.77;2.20;;;30.60;39.60;;;;;;5078635;28;20526;-88
2022/05/23 11:20:34;;;;;;;2.50;2.23;;;30.60;37.90;;;;;;5079200;28;20443;-87
2022/05/23 11:23:07;;;;;;;2.50;2.30;;;29.80;39.90;;;;;;5065192;28;21163;-86
2022/05/23 11:25:38;;;;;;;4.63;2.60;;;29.80;40.20;;;;;;5062453;28;20467;-88
2022/05/23 11:33:47;;;;;;;2.90;2.60;;;29.10;41.50;;;;;;5076125;28;20540;-87
2022/05/23 11:36:28;;;;;;;5.33;2.60;;;29.30;42.00;;;;;;5099429;28;20464;-88
2022/05/23 11:38:55;;;;;;;3.43;2.57;;;29.00;41.30;;;;;;5090678;28;20446;-87
2022/05/23 11:41:41;;;;;;;3.23;2.63;;;28.80;42.30;;;;;;5066365;28;20438;-88
2022/05/23 11:44:41;;;;;;;4.73;2.30;;;29.00;42.60;;;;;;5084760;28;20505;-89
2022/05/23 11:47:21;;;;;;;2.63;2.43;;;29.20;42.40;;;;;;5070158;28;20961;-87
2022/05/23 11:50:00;;;;;;;3.00;2.70;;;29.40;42.60;;;;;;5070652;28;20510;-89
2022/05/23 11:52:33;;;;;;;4.20;3.30;;;29.20;41.80;;;;;;5083809;28;20438;-88
2022/05/23 11:55:01;;;;;;;5.77;5.20;;;29.40;42.10;;;;;;5051904;28;20467;-88
2022/05/23 11:57:35;;;;;;;3.50;2.50;;;29.60;41.20;;;;;;5082092;28;21124;-88
2022/05/23 12:00:21;;;;;;;3.40;2.50;;;29.00;41.70;;;;;;5076181;28;20842;-88
2022/05/23 12:03:08;;;;;;;4.27;2.53;;;29.20;43.30;;;;;;5079070;28;20793;-89
2022/05/23 12:05:35;;;;;;;2.93;2.73;;;29.00;43.40;;;;;;5062820;28;20478;-87
2022/05/23 12:08:06;;;;;;;3.23;2.63;;;29.00;42.40;;;;;;5071984;28;20435;-87
2022/05/23 12:10:54;;;;;;;3.23;2.93;;;28.90;44.10;;;;;;5071932;28;20516;-88
2022/05/23 12:13:52;;;;;;;5.13;3.37;;;29.10;43.30;;;;;;5073013;28;20524;-88
2022/05/23 12:16:45;;;;;;;6.93;3.50;;;29.00;43.00;;;;;;5076776;28;20463;-89
2022/05/23 12:19:29;;;;;;;4.93;3.27;;;29.00;43.60;;;;;;5066330;28;20446;-86
2022/05/23 12:22:32;;;;;;;3.83;3.53;;;29.00;43.90;;;;;;5061956;28;21013;-89
2022/05/23 12:25:26;;;;;;;3.80;3.17;;;29.00;43.70;;;;;;5060302;28;21070;-88
2022/05/23 12:28:08;;;;;;;5.23;3.17;;;29.00;44.60;;;;;;5065602;28;20439;-90
2022/05/23 12:30:38;;;;;;;6.63;3.53;;;28.80;44.60;;;;;;5057114;28;20427;-89
2022/05/23 12:33:09;;;;;;;4.33;3.53;;;29.00;45.20;;;;;;5068422;28;21057;-88
2022/05/23 12:35:49;;;;;;;3.27;3.03;;;28.90;44.00;;;;;;5063903;28;20461;-88
2022/05/23 12:38:29;;;;;;;3.90;2.97;;;28.90;44.60;;;;;;5059212;28;20531;-89
2022/05/23 12:41:11;;;;;;;6.30;3.13;;;28.90;44.50;;;;;;5062017;28;20440;-89
2022/05/23 12:43:51;;;;;;;4.13;3.73;;;29.40;44.20;;;;;;5098428;28;20469;-89
2022/05/23 12:46:28;;;;;;;5.70;3.43;;;29.70;43.70;;;;;;5059340;28;20466;-89
2022/05/23 12:49:21;;;;;;;3.30;3.10;;;29.40;43.90;;;;;;5076590;28;21061;-89
2022/05/23 12:51:58;;;;;;;5.40;3.33;;;29.10;45.20;;;;;;5075996;28;21142;-88
2022/05/23 12:54:38;;;;;;;5.90;3.40;;;29.30;45.20;;;;;;5078297;28;20854;-87
2022/05/23 12:57:36;;;;;;;4.00;3.60;;;28.90;45.10;;;;;;5058621;28;20431;-89
2022/05/23 13:00:05;;;;;;;3.77;3.00;;;28.80;44.70;;;;;;5047291;28;20815;-88
2022/05/23 13:02:36;;;;;;;3.77;3.47;;;27.90;45.80;;;;;;5064336;28;20445;-87
2022/05/23 13:05:07;;;;;;;4.57;3.60;;;27.30;47.40;;;;;;5052679;28;21220;-88
2022/05/23 13:07:47;;;;;;;4.40;2.90;;;27.30;47.40;;;;;;5060321;28;20521;-88
2022/05/23 13:10:21;;;;;;;4.27;3.37;;;27.40;46.40;;;;;;5041802;28;20456;-90
2022/05/23 13:12:58;;;;;;;3.20;2.90;;;27.70;46.10;;;;;;5093655;28;20560;-88
2022/05/23 13:15:28;;;;;;;6.07;3.43;;;27.80;46.40;;;;;;5058121;28;20541;-89
2022/05/23 13:22:05;;;;;;;4.80;3.33;;;27.90;45.80;;;;;;5048522;28;20442;-91
2022/05/23 13:23:31;;;;;;;5.60;3.40;;;28.00;46.30;;;;;;5076814;28;20443;-88
2022/05/23 13:25:58;;;;;;;3.93;3.53;;;28.20;46.40;;;;;;5064570;28;20467;-88
2022/05/23 13:28:27;;;;;;;4.47;3.70;;;28.30;45.60;;;;;;5094622;28;20458;-88
2022/05/23 13:30:56;;;;;;;5.33;3.43;;;28.00;46.30;;;;;;5090781;28;21177;-87
2022/05/23 13:33:34;;;;;;;4.00;3.23;;;28.00;46.50;;;;;;5058919;28;20509;-87
2022/05/23 13:36:05;;;;;;;6.90;3.10;;;28.20;47.20;;;;;;5075185;28;20545;-86
2022/05/23 13:38:34;;;;;;;5.83;3.43;;;28.00;47.00;;;;;;5063093;28;20837;-87
2022/05/23 13:41:03;;;;;;;4.97;3.70;;;27.80;46.80;;;;;;5057986;28;20525;-87
2022/05/23 13:43:44;;;;;;;3.60;3.30;;;27.90;47.00;;;;;;5076886;28;20458;-86
2022/05/23 13:46:18;;;;;;;8.03;3.37;;;28.00;47.40;;;;;;5074770;28;20482;-87
2022/05/23 13:48:47;;;;;;;3.67;3.30;;;28.10;46.50;;;;;;5076632;28;20440;-87
2022/05/23 13:51:21;;;;;;;3.87;3.47;;;28.20;46.70;;;;;;5062291;28;20451;-87
2022/05/23 13:53:52;;;;;;;3.97;3.57;;;28.10;46.40;;;;;;5093571;28;20939;-87
2022/05/23 13:56:20;;;;;;;6.00;3.40;;;28.20;46.70;;;;;;5060799;28;20463;-88
2022/05/23 13:58:51;;;;;;;7.63;3.40;;;28.20;46.90;;;;;;5075541;28;20456;-88
2022/05/23 14:01:21;;;;;;;4.67;3.17;;;27.80;47.50;;;;;;5079560;28;20897;-86
2022/05/23 14:03:53;;;;;;;3.57;3.27;;;27.50;47.80;;;;;;5059136;28;20444;-87
2022/05/23 14:06:24;;;;;;;7.40;3.30;;;27.90;48.00;;;;;;5066606;28;20483;-89
2022/05/23 14:08:54;;;;;;;3.83;2.73;;;27.90;46.90;;;;;;5077056;28;20542;-88
2022/05/23 14:11:23;;;;;;;5.27;3.20;;;27.90;46.30;;;;;;5053091;28;20449;-88
2022/05/23 14:13:57;;;;;;;3.60;2.93;;;27.90;47.10;;;;;;5087453;28;20947;-88